Snow/Ice From: 17-12-2018 09:00 Until: 17:00 warning for: Snow/Ice Level: Yellow info button
suomi:
Liikennesää: Ajokeli muuttuu huonoksi päivällä lumisateen vuoksi.

svenska:
Trafikvädret: Väglaget blir dåligt på dagen p.g.a. snöfall.

english:
Traffic weather warning: Bad road conditions are expected at noon and in the afternoon because of snow. 


Thunder radar more information blitzortung!


Löydät sääaseman tiedot myös:

European Weather Network

Finland Weather Exchange

Weather Underground

AWEKAS



Weather Underground säähistoriasivu

Päivittäin yhteenveto Maaliskuu 16, 2017 Yksiköt:  Englantilaiset    Metriset   Molemmat
« Edellinen Päivä
Seuraava Päivä »
Päivittäin Viikoittain Kuukausittain Vuosittain Mukautettu
  Korkea: Matala: Keskiarvo:
Lämpötila: TemperatureC °F 0.8 °F 2.9 °F
Kastepiste: DewpointC °F -2.7 °F -1.7 °F
Kosteus: Humidity % 55 % 71 %
Tuulen nopeus: WindSpeedKMH mph 1.6 mph 6.1 mph
Tuulenpuuska: WindSpeedGustKMH mph - -
Tuuli:- - WSW
Ilmanpaine: PressurehPa in 995.8 in -
Sade: 0.0 in    
Historical Graphs
 
 
Taulukkotiedot Maaliskuu 16, 2017
Aika Lämpötila Kastepiste Ilmanpaine Tuuli Tuulen nopeus Tuulenpuuska Kosteus Sademäärä (tunneittain)
TemperatureC °F DewpointC °F PressurehPa in Calm     Humidity % HourlyPrecipMM in
00:00 2.7 °F -1.3 °F 996.2 in West 3.2 mph 12.9 mph 75 % 0.0 in
00:15 2.7 °F -1.3 °F 996.2 in West 3.2 mph 16.1 mph 75 % 0.0 in
00:30 2.5 °F -1.3 °F 996.5 in West 1.6 mph 11.3 mph 76 % 0.0 in
00:45 2.3 °F -1.3 °F 996.5 in WSW 3.2 mph 12.9 mph 77 % 0.0 in
01:00 2.3 °F -1.3 °F 996.8 in West 3.2 mph 14.5 mph 77 % 0.0 in
01:15 2.3 °F -1.3 °F 996.8 in WSW 3.2 mph 14.5 mph 77 % 0.0 in
01:30 2.4 °F -1.2 °F 997.2 in WSW 3.2 mph 17.7 mph 77 % 0.0 in
01:45 2.4 °F -1.2 °F 997.2 in WSW 3.2 mph 20.9 mph 77 % 0.0 in
02:00 2.3 °F -1.3 °F 997.5 in West 3.2 mph 11.3 mph 77 % 0.0 in
02:15 2.3 °F -1.3 °F 997.5 in WSW 3.2 mph 11.3 mph 77 % 0.0 in
02:30 2.3 °F -1.2 °F 997.5 in WNW 4.8 mph 20.9 mph 78 % 0.0 in
02:45 2.1 °F -1.2 °F 997.5 in West 4.8 mph 11.3 mph 79 % 0.0 in
03:00 1.9 °F -1.3 °F 997.9 in West 3.2 mph 14.5 mph 79 % 0.0 in
03:15 1.8 °F -1.3 °F 998.2 in SW 3.2 mph 9.7 mph 80 % 0.0 in
03:30 1.7 °F -1.2 °F 998.2 in WSW 3.2 mph 12.9 mph 81 % 0.0 in
03:45 1.7 °F -1.2 °F 998.5 in WNW 3.2 mph 14.5 mph 81 % 0.0 in
04:00 1.7 °F -1.2 °F 998.9 in WNW 3.2 mph 17.7 mph 81 % 0.0 in
04:15 1.6 °F -1.2 °F 998.9 in West 4.8 mph 12.9 mph 82 % 0.0 in
04:30 1.6 °F -1.2 °F 998.9 in WNW 4.8 mph 12.9 mph 82 % 0.0 in
05:00 1.4 °F -1.1 °F 999.5 in West 6.4 mph 14.5 mph 83 % 0.0 in
05:15 1.3 °F -1.2 °F 999.5 in West 3.2 mph 11.3 mph 83 % 0.0 in
05:30 1.3 °F -1.2 °F 999.9 in West 6.4 mph 17.7 mph 83 % 0.0 in
05:45 1.3 °F -1.3 °F 999.9 in WNW 4.8 mph 19.3 mph 83 % 0.0 in
06:00 1.1 °F -1.3 °F 1000.2 in WNW 4.8 mph 14.5 mph 84 % 0.0 in
06:15 1.1 °F -1.3 °F 1000.2 in WNW 4.8 mph 12.9 mph 84 % 0.0 in
06:30 1.0 °F -1.4 °F 1000.6 in WNW 4.8 mph 19.3 mph 84 % 0.0 in
06:45 0.8 °F -1.4 °F 1000.9 in WNW 4.8 mph 22.5 mph 85 % 0.0 in
07:00 0.8 °F -1.4 °F 1000.9 in West 4.8 mph 17.7 mph 85 % 0.0 in
07:15 0.9 °F -1.5 °F 1001.2 in WNW 4.8 mph 17.7 mph 84 % 0.0 in
07:30 0.9 °F -1.5 °F 1001.6 in WNW 6.4 mph 16.1 mph 84 % 0.0 in
07:45 1.0 °F -1.4 °F 1001.9 in WNW 6.4 mph 20.9 mph 84 % 0.0 in
08:00 1.2 °F -1.6 °F 1001.9 in WNW 6.4 mph 19.3 mph 82 % 0.0 in
08:15 1.4 °F -1.5 °F 1001.9 in NW 9.7 mph 20.9 mph 81 % 0.0 in
08:30 1.6 °F -1.5 °F 1002.3 in WNW 8.0 mph 20.9 mph 80 % 0.0 in
08:45 1.9 °F -1.5 °F 1002.6 in NW 9.7 mph 17.7 mph 78 % 0.0 in
09:00 2.2 °F -1.6 °F 1002.6 in NW 9.7 mph 20.9 mph 76 % 0.0 in
09:15 2.4 °F -1.5 °F 1002.9 in NW 9.7 mph 17.7 mph 75 % 0.0 in
09:30 2.7 °F -1.8 °F 1003.3 in NW 9.7 mph 25.7 mph 72 % 0.0 in
09:45 3.0 °F -1.7 °F 1003.3 in NW 11.3 mph 19.3 mph 71 % 0.0 in
10:00 3.3 °F -1.7 °F 1003.6 in NW 9.7 mph 22.5 mph 70 % 0.0 in
10:15 3.6 °F -1.8 °F 1003.9 in NW 9.7 mph 22.5 mph 68 % 0.0 in
10:30 3.9 °F -1.9 °F 1003.9 in NW 9.7 mph 25.7 mph 66 % 0.0 in
10:45 4.2 °F -1.8 °F 1003.9 in NW 9.7 mph 19.3 mph 65 % 0.0 in
11:00 4.3 °F -1.9 °F 1004.3 in NW 9.7 mph 17.7 mph 64 % 0.0 in
11:15 4.4 °F -2.2 °F 1004.6 in NW 9.7 mph 22.5 mph 62 % 0.0 in
11:30 4.8 °F -1.9 °F 1004.6 in NW 6.4 mph 14.5 mph 62 % 0.0 in
11:45 4.9 °F -2.0 °F 1004.6 in WNW 4.8 mph 12.9 mph 61 % 0.0 in
12:15 5.1 °F -2.0 °F 1005.0 in WNW 6.4 mph 14.5 mph 60 % 0.0 in
12:30 5.3 °F -1.8 °F 1005.0 in SW 4.8 mph 12.9 mph 60 % 0.0 in
12:45 5.4 °F -1.9 °F 1005.0 in West 4.8 mph 14.5 mph 59 % 0.0 in
13:00 5.7 °F -1.7 °F 1005.0 in West 4.8 mph 16.1 mph 59 % 0.0 in
13:15 5.8 °F -2.1 °F 1004.6 in West 4.8 mph 11.3 mph 57 % 0.0 in
13:30 5.7 °F -2.1 °F 1004.6 in WNW 4.8 mph 9.7 mph 57 % 0.0 in
13:45 5.9 °F -2.2 °F 1005.0 in WNW 4.8 mph 16.1 mph 56 % 0.0 in
14:00 5.9 °F -1.9 °F 1005.0 in WNW 4.8 mph 16.1 mph 57 % 0.0 in
14:15 6.1 °F -1.6 °F 1005.0 in SW 4.8 mph 12.9 mph 58 % 0.0 in
14:30 6.1 °F -2.1 °F 1005.0 in SW 6.4 mph 12.9 mph 56 % 0.0 in
14:45 6.2 °F -1.7 °F 1004.6 in West 3.2 mph 14.5 mph 57 % 0.0 in
15:00 6.7 °F -1.2 °F 1005.0 in SW 1.6 mph 9.7 mph 57 % 0.0 in
15:15 6.2 °F -2.2 °F 1005.0 in SW 6.4 mph 16.1 mph 55 % 0.0 in
15:30 6.1 °F -1.8 °F 1005.0 in SW 4.8 mph 12.9 mph 57 % 0.0 in
15:45 5.8 °F -1.6 °F 1005.0 in SSW 6.4 mph 17.7 mph 59 % 0.0 in
16:00 5.4 °F -1.7 °F 1005.0 in SSW 6.4 mph 17.7 mph 60 % 0.0 in
16:15 5.2 °F -2.2 °F 1005.0 in SW 6.4 mph 16.1 mph 59 % 0.0 in
16:30 4.6 °F -1.9 °F 1004.6 in SSW 4.8 mph 16.1 mph 63 % 0.0 in
17:00 3.7 °F -2.3 °F 1004.6 in SSW 6.4 mph 17.7 mph 65 % 0.0 in
17:15 3.4 °F -2.2 °F 1004.6 in SSW 6.4 mph 16.1 mph 67 % 0.0 in
17:30 3.2 °F -2.2 °F 1004.6 in SSW 8.0 mph 19.3 mph 68 % 0.0 in
17:45 2.9 °F -2.0 °F 1004.3 in SSW 4.8 mph 11.3 mph 70 % 0.0 in
18:00 2.8 °F -2.2 °F 1004.3 in SSW 6.4 mph 20.9 mph 70 % 0.0 in
18:15 2.6 °F -2.0 °F 1003.9 in SSW 6.4 mph 11.3 mph 72 % 0.0 in
18:30 2.3 °F -1.9 °F 1003.6 in SSW 8.0 mph 14.5 mph 74 % 0.0 in
18:45 1.9 °F -1.8 °F 1003.6 in SSW 4.8 mph 14.5 mph 76 % 0.0 in
19:00 1.8 °F -1.8 °F 1003.6 in SSW 6.4 mph 16.1 mph 77 % 0.0 in
19:15 1.6 °F -1.8 °F 1003.3 in SSW 4.8 mph 12.9 mph 78 % 0.0 in
19:30 1.6 °F -1.9 °F 1002.6 in SSW 8.0 mph 17.7 mph 78 % 0.0 in
19:45 1.4 °F -2.0 °F 1002.3 in SSW 4.8 mph 12.9 mph 78 % 0.0 in
20:15 1.4 °F -2.2 °F 1001.6 in SSW 6.4 mph 16.1 mph 77 % 0.0 in
20:30 1.4 °F -2.3 °F 1001.2 in SSW 8.0 mph 17.7 mph 76 % 0.0 in
20:45 1.5 °F -2.5 °F 1000.9 in SSW 8.0 mph 22.5 mph 75 % 0.0 in
21:00 1.6 °F -2.6 °F 1000.6 in SSW 9.7 mph 22.5 mph 74 % 0.0 in
21:15 1.6 °F -2.7 °F 1000.2 in SSW 9.7 mph 24.1 mph 73 % 0.0 in
21:30 1.8 °F -2.7 °F 999.9 in SSW 9.7 mph 24.1 mph 72 % 0.0 in
21:45 2.0 °F -2.5 °F 999.2 in SSW 9.7 mph 27.4 mph 72 % 0.0 in
22:00 2.4 °F -2.5 °F 998.9 in SSW 11.3 mph 25.7 mph 70 % 0.0 in
22:15 2.5 °F -2.4 °F 998.5 in SSW 11.3 mph 25.7 mph 70 % 0.0 in
22:30 2.6 °F -2.4 °F 997.9 in SSW 8.0 mph 22.5 mph 70 % 0.0 in
22:45 2.7 °F -2.3 °F 997.5 in SSW 8.0 mph 17.7 mph 70 % 0.0 in
23:00 2.8 °F -2.2 °F 997.5 in SSW 8.0 mph 14.5 mph 70 % 0.0 in
23:15 2.9 °F -2.2 °F 996.8 in SSW 9.7 mph 27.4 mph 69 % 0.0 in
23:30 3.1 °F -2.3 °F 996.2 in South 6.4 mph 17.7 mph 68 % 0.0 in
23:45 3.2 °F -2.1 °F 995.8 in SSW 4.8 mph 20.9 mph 68 % 0.0 in
Esan sääasema
Terveisin Weather Underground - 2.75 mb

Alkuperäinen skripti  Jim McMurry - jmcmurry@mwt.net Sovitettu myös templatelle  Wim van der Kuil - Leuven-Template.eu

Laitteet joita käytämme:

Sääasema
Davis VP2

Sääasemaohjelma
Cumulus

Sääaseman tietokone
Asus EeePC

Palveluntarjoaja
Suncomet

Davis VP2

Cumulus

Asus EeePC

Suncomet